Terminal Aerodrome Forecast
Issued by NWS

Home | Current Version | Previous Version | Graphics & Text | Print | Product List | Glossary On
Versions: 1 2 3 4 5 6 7 8 9 10 11 12 13 14 15 16 17
000
FTUS43 KGRB 251300 AAA
TAFMTW
TAF AMD
KMTW 251345Z 2514/2612 19005KT 6SM BR VCTS SCT010CB SCT035 OVC080
      TEMPO 2514/2515 VRB27KT 1SM TSRA SCT012CB BKN025
     FM251500 19007KT 6SM HZ BKN035 BKN070
     FM251900 21010G16KT 6SM HZ SCT040
      TEMPO 2522/2602 2SM TSRA OVC025CB
     FM260200 27004KT P6SM SCT040 SCT070
     FM260500 31005KT P6SM SCT050 BKN080=

USA.gov is the U.S. government's official web portal to all federal, state and local government web resources and services.